sensor_id;sensor_type;location;lat;lon;timestamp;P1;durP1;ratioP1;P2;durP2;ratioP2
13689;SDS011;6917;52.194;9.894;2023-11-21T00:02:09;10.43;;;7.37;;
13689;SDS011;6917;52.194;9.894;2023-11-21T00:04:38;7.87;;;7.03;;
13689;SDS011;6917;52.194;9.894;2023-11-21T00:07:06;9.77;;;8.43;;
13689;SDS011;6917;52.194;9.894;2023-11-21T00:09:31;10.87;;;6.50;;
13689;SDS011;6917;52.194;9.894;2023-11-21T00:12:01;7.07;;;6.40;;
13689;SDS011;6917;52.194;9.894;2023-11-21T00:14:29;8.17;;;5.80;;
13689;SDS011;6917;52.194;9.894;2023-11-21T00:16:58;14.67;;;5.07;;
13689;SDS011;6917;52.194;9.894;2023-11-21T00:19:26;6.00;;;5.33;;
13689;SDS011;6917;52.194;9.894;2023-11-21T00:21:52;10.63;;;7.00;;
13689;SDS011;6917;52.194;9.894;2023-11-21T00:24:20;6.63;;;5.87;;
13689;SDS011;6917;52.194;9.894;2023-11-21T00:26:45;7.37;;;5.40;;
13689;SDS011;6917;52.194;9.894;2023-11-21T00:29:13;5.43;;;4.90;;
13689;SDS011;6917;52.194;9.894;2023-11-21T00:31:41;21.13;;;8.90;;
13689;SDS011;6917;52.194;9.894;2023-11-21T00:34:11;2.77;;;2.43;;
13689;SDS011;6917;52.194;9.894;2023-11-21T00:36:39;11.37;;;7.23;;
13689;SDS011;6917;52.194;9.894;2023-11-21T00:39:07;5.73;;;5.23;;
13689;SDS011;6917;52.194;9.894;2023-11-21T00:41:40;8.73;;;6.20;;
13689;SDS011;6917;52.194;9.894;2023-11-21T00:44:08;15.23;;;6.63;;
13689;SDS011;6917;52.194;9.894;2023-11-21T00:46:36;4.77;;;4.10;;
13689;SDS011;6917;52.194;9.894;2023-11-21T00:49:04;10.73;;;8.07;;
13689;SDS011;6917;52.194;9.894;2023-11-21T00:51:30;7.73;;;7.00;;
13689;SDS011;6917;52.194;9.894;2023-11-21T00:53:55;10.20;;;7.47;;
13689;SDS011;6917;52.194;9.894;2023-11-21T00:56:21;7.40;;;3.77;;
13689;SDS011;6917;52.194;9.894;2023-11-21T00:58:50;15.00;;;7.23;;
13689;SDS011;6917;52.194;9.894;2023-11-21T01:01:17;5.03;;;4.63;;
13689;SDS011;6917;52.194;9.894;2023-11-21T01:03:46;15.33;;;7.70;;
13689;SDS011;6917;52.194;9.894;2023-11-21T01:06:12;23.93;;;10.20;;
13689;SDS011;6917;52.194;9.894;2023-11-21T01:08:40;7.83;;;7.17;;
13689;SDS011;6917;52.194;9.894;2023-11-21T01:11:05;5.53;;;5.03;;
13689;SDS011;6917;52.194;9.894;2023-11-21T01:13:33;8.43;;;7.33;;
13689;SDS011;6917;52.194;9.894;2023-11-21T01:16:07;4.70;;;3.50;;
13689;SDS011;6917;52.194;9.894;2023-11-21T01:18:39;11.80;;;5.93;;
13689;SDS011;6917;52.194;9.894;2023-11-21T01:21:05;13.77;;;6.07;;
13689;SDS011;6917;52.194;9.894;2023-11-21T01:23:31;11.27;;;7.30;;
13689;SDS011;6917;52.194;9.894;2023-11-21T01:25:56;10.93;;;6.27;;
13689;SDS011;6917;52.194;9.894;2023-11-21T01:28:32;4.80;;;4.40;;
13689;SDS011;6917;52.194;9.894;2023-11-21T01:30:57;11.93;;;7.17;;
13689;SDS011;6917;52.194;9.894;2023-11-21T01:33:23;14.17;;;8.40;;
13689;SDS011;6917;52.194;9.894;2023-11-21T01:35:57;13.33;;;6.17;;
13689;SDS011;6917;52.194;9.894;2023-11-21T01:38:22;9.80;;;7.23;;
13689;SDS011;6917;52.194;9.894;2023-11-21T01:40:48;10.37;;;5.43;;
13689;SDS011;6917;52.194;9.894;2023-11-21T01:43:14;13.97;;;6.27;;
13689;SDS011;6917;52.194;9.894;2023-11-21T01:45:39;15.47;;;6.30;;
13689;SDS011;6917;52.194;9.894;2023-11-21T01:48:05;2.60;;;2.43;;
13689;SDS011;6917;52.194;9.894;2023-11-21T01:50:44;5.83;;;5.33;;
13689;SDS011;6917;52.194;9.894;2023-11-21T01:53:12;8.03;;;3.67;;
13689;SDS011;6917;52.194;9.894;2023-11-21T01:55:38;13.73;;;8.87;;
13689;SDS011;6917;52.194;9.894;2023-11-21T01:58:09;18.00;;;10.10;;
13689;SDS011;6917;52.194;9.894;2023-11-21T02:00:41;17.57;;;6.03;;
13689;SDS011;6917;52.194;9.894;2023-11-21T02:03:09;16.13;;;7.20;;
13689;SDS011;6917;52.194;9.894;2023-11-21T02:05:35;19.37;;;7.83;;
13689;SDS011;6917;52.194;9.894;2023-11-21T02:08:04;21.37;;;7.87;;
13689;SDS011;6917;52.194;9.894;2023-11-21T02:10:30;13.63;;;9.07;;
13689;SDS011;6917;52.194;9.894;2023-11-21T02:12:58;11.97;;;7.10;;
13689;SDS011;6917;52.194;9.894;2023-11-21T02:15:27;21.27;;;8.10;;
13689;SDS011;6917;52.194;9.894;2023-11-21T02:17:56;5.77;;;5.20;;
13689;SDS011;6917;52.194;9.894;2023-11-21T02:20:23;5.57;;;5.17;;
13689;SDS011;6917;52.194;9.894;2023-11-21T02:22:54;7.73;;;6.10;;
13689;SDS011;6917;52.194;9.894;2023-11-21T02:25:30;4.77;;;4.47;;
13689;SDS011;6917;52.194;9.894;2023-11-21T02:28:02;27.17;;;7.23;;
13689;SDS011;6917;52.194;9.894;2023-11-21T02:30:31;21.53;;;5.73;;
13689;SDS011;6917;52.194;9.894;2023-11-21T02:32:57;13.00;;;8.23;;
13689;SDS011;6917;52.194;9.894;2023-11-21T02:35:23;12.30;;;7.33;;
13689;SDS011;6917;52.194;9.894;2023-11-21T02:37:51;7.03;;;6.03;;
13689;SDS011;6917;52.194;9.894;2023-11-21T02:40:17;33.20;;;7.27;;
13689;SDS011;6917;52.194;9.894;2023-11-21T02:42:45;3.10;;;2.87;;
13689;SDS011;6917;52.194;9.894;2023-11-21T02:45:12;4.73;;;4.43;;
13689;SDS011;6917;52.194;9.894;2023-11-21T02:47:39;22.60;;;7.47;;
13689;SDS011;6917;52.194;9.894;2023-11-21T02:50:05;12.60;;;6.00;;
13689;SDS011;6917;52.194;9.894;2023-11-21T02:52:33;12.23;;;8.03;;
13689;SDS011;6917;52.194;9.894;2023-11-21T02:55:01;6.13;;;5.43;;
13689;SDS011;6917;52.194;9.894;2023-11-21T02:57:31;9.47;;;6.43;;
13689;SDS011;6917;52.194;9.894;2023-11-21T03:00:01;15.60;;;8.60;;
13689;SDS011;6917;52.194;9.894;2023-11-21T03:02:27;12.23;;;8.47;;
13689;SDS011;6917;52.194;9.894;2023-11-21T03:04:53;9.53;;;5.33;;
13689;SDS011;6917;52.194;9.894;2023-11-21T03:07:18;12.07;;;6.10;;
13689;SDS011;6917;52.194;9.894;2023-11-21T03:09:46;14.20;;;7.80;;
13689;SDS011;6917;52.194;9.894;2023-11-21T03:12:12;10.43;;;7.40;;
13689;SDS011;6917;52.194;9.894;2023-11-21T03:14:37;13.63;;;6.53;;
13689;SDS011;6917;52.194;9.894;2023-11-21T03:17:03;14.10;;;7.20;;
13689;SDS011;6917;52.194;9.894;2023-11-21T03:19:30;8.33;;;7.53;;
13689;SDS011;6917;52.194;9.894;2023-11-21T03:21:55;12.87;;;8.33;;
13689;SDS011;6917;52.194;9.894;2023-11-21T03:24:20;19.40;;;8.57;;
13689;SDS011;6917;52.194;9.894;2023-11-21T03:26:47;13.37;;;10.13;;
13689;SDS011;6917;52.194;9.894;2023-11-21T03:29:13;10.20;;;8.37;;
13689;SDS011;6917;52.194;9.894;2023-11-21T03:31:39;20.37;;;10.50;;
13689;SDS011;6917;52.194;9.894;2023-11-21T03:34:05;6.80;;;6.20;;
13689;SDS011;6917;52.194;9.894;2023-11-21T03:36:34;9.10;;;8.10;;
13689;SDS011;6917;52.194;9.894;2023-11-21T03:38:59;18.97;;;12.10;;
13689;SDS011;6917;52.194;9.894;2023-11-21T03:41:24;6.13;;;5.63;;
13689;SDS011;6917;52.194;9.894;2023-11-21T03:43:50;11.63;;;7.07;;
13689;SDS011;6917;52.194;9.894;2023-11-21T03:46:21;28.30;;;10.63;;
13689;SDS011;6917;52.194;9.894;2023-11-21T03:48:46;6.43;;;5.93;;
13689;SDS011;6917;52.194;9.894;2023-11-21T03:51:11;5.97;;;5.47;;
13689;SDS011;6917;52.194;9.894;2023-11-21T03:53:37;16.20;;;8.50;;
13689;SDS011;6917;52.194;9.894;2023-11-21T03:56:02;20.30;;;8.77;;
13689;SDS011;6917;52.194;9.894;2023-11-21T03:58:28;31.93;;;5.57;;
13689;SDS011;6917;52.194;9.894;2023-11-21T04:00:57;13.70;;;6.00;;
13689;SDS011;6917;52.194;9.894;2023-11-21T04:03:22;10.63;;;6.13;;
13689;SDS011;6917;52.194;9.894;2023-11-21T04:05:47;28.83;;;10.37;;
13689;SDS011;6917;52.194;9.894;2023-11-21T04:08:13;17.30;;;7.97;;
13689;SDS011;6917;52.194;9.894;2023-11-21T04:10:38;14.47;;;7.17;;
13689;SDS011;6917;52.194;9.894;2023-11-21T04:13:04;29.03;;;7.70;;
13689;SDS011;6917;52.194;9.894;2023-11-21T04:15:30;21.10;;;7.27;;
13689;SDS011;6917;52.194;9.894;2023-11-21T04:17:55;11.30;;;8.80;;
13689;SDS011;6917;52.194;9.894;2023-11-21T04:20:21;8.67;;;6.93;;
13689;SDS011;6917;52.194;9.894;2023-11-21T04:22:48;10.40;;;8.73;;
13689;SDS011;6917;52.194;9.894;2023-11-21T04:25:14;9.40;;;7.27;;
13689;SDS011;6917;52.194;9.894;2023-11-21T04:27:40;11.67;;;7.47;;
13689;SDS011;6917;52.194;9.894;2023-11-21T04:30:08;9.13;;;7.90;;
13689;SDS011;6917;52.194;9.894;2023-11-21T04:32:34;12.83;;;8.87;;
13689;SDS011;6917;52.194;9.894;2023-11-21T04:35:00;12.27;;;9.37;;
13689;SDS011;6917;52.194;9.894;2023-11-21T04:37:25;12.17;;;8.40;;
13689;SDS011;6917;52.194;9.894;2023-11-21T04:39:51;26.07;;;9.97;;
13689;SDS011;6917;52.194;9.894;2023-11-21T04:42:16;15.00;;;9.63;;
13689;SDS011;6917;52.194;9.894;2023-11-21T04:44:42;32.63;;;12.07;;
13689;SDS011;6917;52.194;9.894;2023-11-21T04:47:08;21.03;;;10.17;;
13689;SDS011;6917;52.194;9.894;2023-11-21T04:49:34;3.67;;;2.57;;
13689;SDS011;6917;52.194;9.894;2023-11-21T04:51:59;25.63;;;11.67;;
13689;SDS011;6917;52.194;9.894;2023-11-21T04:54:25;5.70;;;5.17;;
13689;SDS011;6917;52.194;9.894;2023-11-21T04:56:50;13.27;;;7.53;;
13689;SDS011;6917;52.194;9.894;2023-11-21T04:59:15;17.07;;;8.33;;
13689;SDS011;6917;52.194;9.894;2023-11-21T05:01:41;16.87;;;10.67;;
13689;SDS011;6917;52.194;9.894;2023-11-21T05:04:06;24.27;;;9.37;;
13689;SDS011;6917;52.194;9.894;2023-11-21T05:06:33;6.30;;;5.77;;
13689;SDS011;6917;52.194;9.894;2023-11-21T05:08:59;14.00;;;12.03;;
13689;SDS011;6917;52.194;9.894;2023-11-21T05:11:28;10.57;;;9.40;;
13689;SDS011;6917;52.194;9.894;2023-11-21T05:13:57;14.23;;;5.97;;
13689;SDS011;6917;52.194;9.894;2023-11-21T05:16:25;13.87;;;8.13;;
13689;SDS011;6917;52.194;9.894;2023-11-21T05:18:50;4.03;;;3.73;;
13689;SDS011;6917;52.194;9.894;2023-11-21T05:21:16;8.00;;;6.70;;
13689;SDS011;6917;52.194;9.894;2023-11-21T05:23:41;13.93;;;6.33;;
13689;SDS011;6917;52.194;9.894;2023-11-21T05:26:06;8.73;;;7.00;;
13689;SDS011;6917;52.194;9.894;2023-11-21T05:28:32;9.90;;;6.27;;
13689;SDS011;6917;52.194;9.894;2023-11-21T05:30:57;27.73;;;8.10;;
13689;SDS011;6917;52.194;9.894;2023-11-21T05:33:23;3.10;;;2.53;;
13689;SDS011;6917;52.194;9.894;2023-11-21T05:35:48;12.40;;;6.57;;
13689;SDS011;6917;52.194;9.894;2023-11-21T05:38:14;5.30;;;4.90;;
13689;SDS011;6917;52.194;9.894;2023-11-21T05:40:39;11.63;;;6.43;;
13689;SDS011;6917;52.194;9.894;2023-11-21T05:43:04;15.90;;;5.27;;
13689;SDS011;6917;52.194;9.894;2023-11-21T05:45:30;6.47;;;2.87;;
13689;SDS011;6917;52.194;9.894;2023-11-21T05:47:56;19.00;;;6.27;;
13689;SDS011;6917;52.194;9.894;2023-11-21T05:50:21;9.93;;;4.27;;
13689;SDS011;6917;52.194;9.894;2023-11-21T05:52:47;13.13;;;4.90;;
13689;SDS011;6917;52.194;9.894;2023-11-21T05:55:13;19.87;;;10.57;;
13689;SDS011;6917;52.194;9.894;2023-11-21T05:57:39;8.57;;;7.67;;
13689;SDS011;6917;52.194;9.894;2023-11-21T06:02:50;19.03;;;10.47;;
13689;SDS011;6917;52.194;9.894;2023-11-21T06:15:05;14.03;;;5.93;;
13689;SDS011;6917;52.194;9.894;2023-11-21T06:17:33;6.40;;;5.80;;
13689;SDS011;6917;52.194;9.894;2023-11-21T06:20:05;12.03;;;7.33;;
13689;SDS011;6917;52.194;9.894;2023-11-21T06:22:40;8.00;;;6.33;;
13689;SDS011;6917;52.194;9.894;2023-11-21T06:25:09;4.27;;;3.07;;
13689;SDS011;6917;52.194;9.894;2023-11-21T06:27:38;5.63;;;3.60;;
13689;SDS011;6917;52.194;9.894;2023-11-21T06:30:04;6.75;;;6.20;;
13689;SDS011;6917;52.194;9.894;2023-11-21T06:32:31;6.23;;;3.03;;
13689;SDS011;6917;52.194;9.894;2023-11-21T06:34:57;7.77;;;3.53;;
13689;SDS011;6917;52.194;9.894;2023-11-21T06:37:25;7.30;;;6.60;;
13689;SDS011;6917;52.194;9.894;2023-11-21T06:39:51;8.67;;;4.80;;
13689;SDS011;6917;52.194;9.894;2023-11-21T06:42:17;2.23;;;2.10;;
13689;SDS011;6917;52.194;9.894;2023-11-21T06:44:44;18.63;;;8.50;;
13689;SDS011;6917;52.194;9.894;2023-11-21T06:47:10;2.57;;;2.47;;
13689;SDS011;6917;52.194;9.894;2023-11-21T06:49:35;4.17;;;3.83;;
13689;SDS011;6917;52.194;9.894;2023-11-21T06:52:01;8.53;;;6.47;;
13689;SDS011;6917;52.194;9.894;2023-11-21T06:54:27;10.63;;;5.20;;
13689;SDS011;6917;52.194;9.894;2023-11-21T06:56:53;4.50;;;4.03;;
13689;SDS011;6917;52.194;9.894;2023-11-21T06:59:18;3.67;;;3.47;;
13689;SDS011;6917;52.194;9.894;2023-11-21T07:01:43;3.53;;;3.33;;
13689;SDS011;6917;52.194;9.894;2023-11-21T07:04:09;4.17;;;3.87;;
13689;SDS011;6917;52.194;9.894;2023-11-21T07:06:35;8.10;;;3.53;;
13689;SDS011;6917;52.194;9.894;2023-11-21T07:09:00;5.20;;;4.33;;
13689;SDS011;6917;52.194;9.894;2023-11-21T07:11:26;5.27;;;2.03;;
13689;SDS011;6917;52.194;9.894;2023-11-21T07:13:52;1.93;;;1.77;;
13689;SDS011;6917;52.194;9.894;2023-11-21T07:16:18;6.50;;;1.60;;
13689;SDS011;6917;52.194;9.894;2023-11-21T07:18:44;2.03;;;1.93;;
13689;SDS011;6917;52.194;9.894;2023-11-21T07:35:43;1.97;;;1.80;;
13689;SDS011;6917;52.194;9.894;2023-11-21T07:38:09;3.43;;;2.57;;
13689;SDS011;6917;52.194;9.894;2023-11-21T07:40:34;0.73;;;0.60;;
13689;SDS011;6917;52.194;9.894;2023-11-21T07:42:59;0.77;;;0.77;;
13689;SDS011;6917;52.194;9.894;2023-11-21T07:45:25;1.97;;;1.10;;
13689;SDS011;6917;52.194;9.894;2023-11-21T07:47:52;2.40;;;2.20;;
13689;SDS011;6917;52.194;9.894;2023-11-21T07:50:18;1.73;;;1.43;;
13689;SDS011;6917;52.194;9.894;2023-11-21T07:52:45;4.23;;;1.97;;
13689;SDS011;6917;52.194;9.894;2023-11-21T07:55:10;4.57;;;3.57;;
13689;SDS011;6917;52.194;9.894;2023-11-21T07:57:36;4.77;;;2.20;;
13689;SDS011;6917;52.194;9.894;2023-11-21T08:00:02;0.67;;;0.67;;
13689;SDS011;6917;52.194;9.894;2023-11-21T08:02:28;1.97;;;1.70;;
13689;SDS011;6917;52.194;9.894;2023-11-21T08:04:53;0.30;;;0.30;;
13689;SDS011;6917;52.194;9.894;2023-11-21T08:07:21;0.20;;;0.20;;
13689;SDS011;6917;52.194;9.894;2023-11-21T08:09:47;0.30;;;0.30;;
13689;SDS011;6917;52.194;9.894;2023-11-21T08:12:16;1.60;;;1.50;;
13689;SDS011;6917;52.194;9.894;2023-11-21T08:14:42;1.43;;;1.27;;
13689;SDS011;6917;52.194;9.894;2023-11-21T08:17:09;0.47;;;0.47;;
13689;SDS011;6917;52.194;9.894;2023-11-21T08:19:35;0.93;;;0.57;;
13689;SDS011;6917;52.194;9.894;2023-11-21T08:22:01;1.83;;;1.63;;
13689;SDS011;6917;52.194;9.894;2023-11-21T08:24:27;1.00;;;0.80;;
13689;SDS011;6917;52.194;9.894;2023-11-21T08:26:53;0.87;;;0.87;;
13689;SDS011;6917;52.194;9.894;2023-11-21T08:29:19;3.10;;;2.07;;
13689;SDS011;6917;52.194;9.894;2023-11-21T08:31:44;1.07;;;0.83;;
13689;SDS011;6917;52.194;9.894;2023-11-21T08:34:12;0.97;;;0.97;;
13689;SDS011;6917;52.194;9.894;2023-11-21T08:36:42;2.67;;;1.83;;
13689;SDS011;6917;52.194;9.894;2023-11-21T08:39:08;8.23;;;2.00;;
13689;SDS011;6917;52.194;9.894;2023-11-21T08:41:34;0.37;;;0.37;;
13689;SDS011;6917;52.194;9.894;2023-11-21T08:44:01;2.87;;;2.67;;
13689;SDS011;6917;52.194;9.894;2023-11-21T08:46:27;2.77;;;2.43;;
13689;SDS011;6917;52.194;9.894;2023-11-21T08:48:52;3.67;;;3.20;;
13689;SDS011;6917;52.194;9.894;2023-11-21T08:51:18;2.37;;;2.17;;
13689;SDS011;6917;52.194;9.894;2023-11-21T08:53:43;6.70;;;2.90;;
13689;SDS011;6917;52.194;9.894;2023-11-21T08:56:12;6.73;;;4.27;;
13689;SDS011;6917;52.194;9.894;2023-11-21T08:58:41;4.20;;;3.80;;
13689;SDS011;6917;52.194;9.894;2023-11-21T09:01:06;2.57;;;2.47;;
13689;SDS011;6917;52.194;9.894;2023-11-21T09:03:32;12.23;;;9.27;;
13689;SDS011;6917;52.194;9.894;2023-11-21T09:05:59;6.13;;;5.63;;
13689;SDS011;6917;52.194;9.894;2023-11-21T09:22:57;0.10;;;0.10;;
13689;SDS011;6917;52.194;9.894;2023-11-21T09:25:22;5.30;;;4.53;;
13689;SDS011;6917;52.194;9.894;2023-11-21T09:27:48;8.60;;;5.47;;
13689;SDS011;6917;52.194;9.894;2023-11-21T09:30:13;11.70;;;4.20;;
13689;SDS011;6917;52.194;9.894;2023-11-21T09:32:41;7.53;;;5.70;;
13689;SDS011;6917;52.194;9.894;2023-11-21T09:35:10;7.00;;;4.73;;
13689;SDS011;6917;52.194;9.894;2023-11-21T09:37:36;4.43;;;4.07;;
13689;SDS011;6917;52.194;9.894;2023-11-21T09:40:04;6.43;;;4.40;;
13689;SDS011;6917;52.194;9.894;2023-11-21T09:42:31;2.03;;;1.50;;
13689;SDS011;6917;52.194;9.894;2023-11-21T09:45:17;2.40;;;2.30;;
13689;SDS011;6917;52.194;9.894;2023-11-21T09:47:46;3.67;;;2.37;;
13689;SDS011;6917;52.194;9.894;2023-11-21T09:50:11;7.23;;;6.33;;
13689;SDS011;6917;52.194;9.894;2023-11-21T09:55:19;5.47;;;4.93;;
13689;SDS011;6917;52.194;9.894;2023-11-21T09:57:46;1.67;;;1.20;;
13689;SDS011;6917;52.194;9.894;2023-11-21T10:00:13;1.43;;;1.33;;
13689;SDS011;6917;52.194;9.894;2023-11-21T10:02:42;0.87;;;0.87;;
13689;SDS011;6917;52.194;9.894;2023-11-21T10:05:08;5.07;;;3.43;;
13689;SDS011;6917;52.194;9.894;2023-11-21T10:07:34;4.23;;;3.00;;
13689;SDS011;6917;52.194;9.894;2023-11-21T10:10:00;5.87;;;4.17;;
13689;SDS011;6917;52.194;9.894;2023-11-21T10:12:27;8.50;;;6.53;;
13689;SDS011;6917;52.194;9.894;2023-11-21T10:14:53;1.77;;;1.67;;
13689;SDS011;6917;52.194;9.894;2023-11-21T10:17:21;1.73;;;1.67;;
13689;SDS011;6917;52.194;9.894;2023-11-21T10:19:52;0.57;;;0.57;;
13689;SDS011;6917;52.194;9.894;2023-11-21T10:22:18;7.03;;;6.33;;
13689;SDS011;6917;52.194;9.894;2023-11-21T10:24:45;4.27;;;3.93;;
13689;SDS011;6917;52.194;9.894;2023-11-21T10:27:10;7.90;;;5.30;;
13689;SDS011;6917;52.194;9.894;2023-11-21T10:29:36;1.93;;;1.80;;
13689;SDS011;6917;52.194;9.894;2023-11-21T10:32:02;3.50;;;3.20;;
13689;SDS011;6917;52.194;9.894;2023-11-21T10:34:28;7.10;;;5.63;;
13689;SDS011;6917;52.194;9.894;2023-11-21T10:36:54;5.13;;;2.43;;
13689;SDS011;6917;52.194;9.894;2023-11-21T10:39:22;0.53;;;0.53;;
13689;SDS011;6917;52.194;9.894;2023-11-21T10:41:48;1.03;;;1.03;;
13689;SDS011;6917;52.194;9.894;2023-11-21T10:44:16;0.47;;;0.47;;
13689;SDS011;6917;52.194;9.894;2023-11-21T10:46:49;1.87;;;0.67;;
13689;SDS011;6917;52.194;9.894;2023-11-21T10:49:19;4.03;;;3.73;;
13689;SDS011;6917;52.194;9.894;2023-11-21T10:51:45;1.37;;;1.27;;
13689;SDS011;6917;52.194;9.894;2023-11-21T10:54:10;0.67;;;0.43;;
13689;SDS011;6917;52.194;9.894;2023-11-21T10:56:38;1.87;;;1.77;;
13689;SDS011;6917;52.194;9.894;2023-11-21T10:59:07;4.13;;;3.73;;
13689;SDS011;6917;52.194;9.894;2023-11-21T11:01:35;1.07;;;0.97;;
13689;SDS011;6917;52.194;9.894;2023-11-21T11:04:01;2.07;;;1.87;;
13689;SDS011;6917;52.194;9.894;2023-11-21T11:06:31;1.30;;;0.87;;
13689;SDS011;6917;52.194;9.894;2023-11-21T11:08:57;2.43;;;2.23;;
13689;SDS011;6917;52.194;9.894;2023-11-21T11:11:25;2.90;;;2.70;;
13689;SDS011;6917;52.194;9.894;2023-11-21T11:13:50;1.00;;;1.00;;
13689;SDS011;6917;52.194;9.894;2023-11-21T11:16:18;4.43;;;3.67;;
13689;SDS011;6917;52.194;9.894;2023-11-21T11:18:44;0.70;;;0.70;;
13689;SDS011;6917;52.194;9.894;2023-11-21T11:21:16;2.33;;;1.60;;
13689;SDS011;6917;52.194;9.894;2023-11-21T11:26:56;2.97;;;2.60;;
13689;SDS011;6917;52.194;9.894;2023-11-21T11:30:16;2.17;;;1.97;;
13689;SDS011;6917;52.194;9.894;2023-11-21T11:35:24;2.63;;;2.50;;
13689;SDS011;6917;52.194;9.894;2023-11-21T11:37:57;0.47;;;0.47;;
13689;SDS011;6917;52.194;9.894;2023-11-21T11:40:25;0.37;;;0.37;;
13689;SDS011;6917;52.194;9.894;2023-11-21T11:43:03;1.80;;;1.07;;
13689;SDS011;6917;52.194;9.894;2023-11-21T11:45:32;0.47;;;0.47;;
13689;SDS011;6917;52.194;9.894;2023-11-21T11:47:59;3.00;;;1.83;;
13689;SDS011;6917;52.194;9.894;2023-11-21T11:50:25;0.70;;;0.70;;
13689;SDS011;6917;52.194;9.894;2023-11-21T11:52:55;2.97;;;2.23;;
13689;SDS011;6917;52.194;9.894;2023-11-21T11:55:36;0.93;;;0.93;;
13689;SDS011;6917;52.194;9.894;2023-11-21T11:58:04;3.73;;;3.23;;
13689;SDS011;6917;52.194;9.894;2023-11-21T12:00:34;0.20;;;0.20;;
13689;SDS011;6917;52.194;9.894;2023-11-21T12:03:02;0.77;;;0.77;;
13689;SDS011;6917;52.194;9.894;2023-11-21T12:05:29;0.20;;;0.20;;
13689;SDS011;6917;52.194;9.894;2023-11-21T12:08:01;1.13;;;0.83;;
13689;SDS011;6917;52.194;9.894;2023-11-21T12:10:28;2.63;;;2.43;;
13689;SDS011;6917;52.194;9.894;2023-11-21T12:13:08;1.33;;;1.23;;
13689;SDS011;6917;52.194;9.894;2023-11-21T12:15:35;3.23;;;2.33;;
13689;SDS011;6917;52.194;9.894;2023-11-21T12:18:01;4.47;;;2.23;;
13689;SDS011;6917;52.194;9.894;2023-11-21T12:20:27;0.50;;;0.50;;
13689;SDS011;6917;52.194;9.894;2023-11-21T12:25:23;0.10;;;0.10;;
13689;SDS011;6917;52.194;9.894;2023-11-21T12:27:53;1.43;;;1.33;;
13689;SDS011;6917;52.194;9.894;2023-11-21T12:30:20;0.80;;;0.80;;
13689;SDS011;6917;52.194;9.894;2023-11-21T12:32:53;4.27;;;3.97;;
13689;SDS011;6917;52.194;9.894;2023-11-21T12:35:21;0.87;;;0.87;;
13689;SDS011;6917;52.194;9.894;2023-11-21T12:37:49;0.67;;;0.67;;
13689;SDS011;6917;52.194;9.894;2023-11-21T12:40:16;1.10;;;1.03;;
13689;SDS011;6917;52.194;9.894;2023-11-21T12:42:42;0.70;;;0.70;;
13689;SDS011;6917;52.194;9.894;2023-11-21T12:48:04;3.13;;;1.03;;
13689;SDS011;6917;52.194;9.894;2023-11-21T12:50:33;0.90;;;0.87;;
13689;SDS011;6917;52.194;9.894;2023-11-21T12:53:05;2.33;;;2.17;;
13689;SDS011;6917;52.194;9.894;2023-11-21T12:55:41;2.83;;;2.67;;
13689;SDS011;6917;52.194;9.894;2023-11-21T12:58:08;1.47;;;1.37;;
13689;SDS011;6917;52.194;9.894;2023-11-21T13:00:44;1.60;;;1.50;;
13689;SDS011;6917;52.194;9.894;2023-11-21T13:03:12;2.17;;;2.03;;
13689;SDS011;6917;52.194;9.894;2023-11-21T13:05:42;0.70;;;0.70;;
13689;SDS011;6917;52.194;9.894;2023-11-21T13:08:12;2.33;;;1.20;;
13689;SDS011;6917;52.194;9.894;2023-11-21T13:10:44;0.47;;;0.47;;
13689;SDS011;6917;52.194;9.894;2023-11-21T13:13:12;0.77;;;0.70;;
13689;SDS011;6917;52.194;9.894;2023-11-21T13:15:47;0.30;;;0.30;;
13689;SDS011;6917;52.194;9.894;2023-11-21T13:18:15;0.33;;;0.33;;
13689;SDS011;6917;52.194;9.894;2023-11-21T13:20:41;2.23;;;2.00;;
13689;SDS011;6917;52.194;9.894;2023-11-21T13:23:08;3.00;;;0.83;;
13689;SDS011;6917;52.194;9.894;2023-11-21T13:25:37;1.07;;;0.90;;
13689;SDS011;6917;52.194;9.894;2023-11-21T13:28:10;0.07;;;0.07;;
13689;SDS011;6917;52.194;9.894;2023-11-21T13:30:36;0.97;;;0.97;;
13689;SDS011;6917;52.194;9.894;2023-11-21T13:33:05;0.30;;;0.30;;
13689;SDS011;6917;52.194;9.894;2023-11-21T13:35:35;2.33;;;2.00;;
13689;SDS011;6917;52.194;9.894;2023-11-21T13:38:12;1.17;;;1.07;;
13689;SDS011;6917;52.194;9.894;2023-11-21T13:40:38;2.73;;;1.43;;
13689;SDS011;6917;52.194;9.894;2023-11-21T13:43:10;2.23;;;2.03;;
13689;SDS011;6917;52.194;9.894;2023-11-21T13:45:36;0.60;;;0.60;;
13689;SDS011;6917;52.194;9.894;2023-11-21T13:48:04;1.40;;;1.10;;
13689;SDS011;6917;52.194;9.894;2023-11-21T13:50:31;0.93;;;0.93;;
13689;SDS011;6917;52.194;9.894;2023-11-21T13:53:00;0.30;;;0.30;;
13689;SDS011;6917;52.194;9.894;2023-11-21T13:55:41;0.23;;;0.23;;
13689;SDS011;6917;52.194;9.894;2023-11-21T13:58:06;0.63;;;0.63;;
13689;SDS011;6917;52.194;9.894;2023-11-21T14:00:36;0.10;;;0.10;;
13689;SDS011;6917;52.194;9.894;2023-11-21T14:03:08;0.93;;;0.70;;
13689;SDS011;6917;52.194;9.894;2023-11-21T14:05:42;1.30;;;1.20;;
13689;SDS011;6917;52.194;9.894;2023-11-21T14:08:08;0.57;;;0.57;;
13689;SDS011;6917;52.194;9.894;2023-11-21T14:10:36;0.67;;;0.67;;
13689;SDS011;6917;52.194;9.894;2023-11-21T14:13:08;1.60;;;1.50;;
13689;SDS011;6917;52.194;9.894;2023-11-21T14:15:38;0.20;;;0.17;;
13689;SDS011;6917;52.194;9.894;2023-11-21T14:18:08;1.50;;;1.17;;
13689;SDS011;6917;52.194;9.894;2023-11-21T14:20:35;0.33;;;0.33;;
13689;SDS011;6917;52.194;9.894;2023-11-21T14:23:05;1.83;;;1.73;;
13689;SDS011;6917;52.194;9.894;2023-11-21T14:25:34;0.30;;;0.30;;
13689;SDS011;6917;52.194;9.894;2023-11-21T14:28:01;1.30;;;1.20;;
13689;SDS011;6917;52.194;9.894;2023-11-21T14:30:28;5.33;;;3.50;;
13689;SDS011;6917;52.194;9.894;2023-11-21T14:32:56;2.03;;;1.90;;
13689;SDS011;6917;52.194;9.894;2023-11-21T14:35:22;0.50;;;0.30;;
13689;SDS011;6917;52.194;9.894;2023-11-21T14:37:48;2.97;;;2.77;;
13689;SDS011;6917;52.194;9.894;2023-11-21T14:40:13;1.73;;;1.63;;
13689;SDS011;6917;52.194;9.894;2023-11-21T14:42:40;0.50;;;0.50;;
13689;SDS011;6917;52.194;9.894;2023-11-21T14:45:07;0.80;;;0.80;;
13689;SDS011;6917;52.194;9.894;2023-11-21T14:47:33;0.30;;;0.27;;
13689;SDS011;6917;52.194;9.894;2023-11-21T14:49:59;1.93;;;1.03;;
13689;SDS011;6917;52.194;9.894;2023-11-21T14:52:40;0.70;;;0.70;;
13689;SDS011;6917;52.194;9.894;2023-11-21T14:55:20;1.63;;;0.83;;
13689;SDS011;6917;52.194;9.894;2023-11-21T14:57:50;1.00;;;0.90;;
13689;SDS011;6917;52.194;9.894;2023-11-21T15:00:16;1.63;;;1.53;;
13689;SDS011;6917;52.194;9.894;2023-11-21T15:03:00;0.00;;;0.00;;
13689;SDS011;6917;52.194;9.894;2023-11-21T15:05:27;0.53;;;0.53;;
13689;SDS011;6917;52.194;9.894;2023-11-21T15:07:53;1.00;;;1.00;;
13689;SDS011;6917;52.194;9.894;2023-11-21T15:10:21;2.00;;;1.80;;
13689;SDS011;6917;52.194;9.894;2023-11-21T15:13:04;0.90;;;0.90;;
13689;SDS011;6917;52.194;9.894;2023-11-21T15:15:29;2.00;;;1.80;;
13689;SDS011;6917;52.194;9.894;2023-11-21T15:17:57;2.73;;;2.53;;
13689;SDS011;6917;52.194;9.894;2023-11-21T15:20:23;1.37;;;1.27;;
13689;SDS011;6917;52.194;9.894;2023-11-21T15:22:48;1.60;;;1.37;;
13689;SDS011;6917;52.194;9.894;2023-11-21T15:25:13;2.10;;;1.13;;
13689;SDS011;6917;52.194;9.894;2023-11-21T15:27:47;0.03;;;0.03;;
13689;SDS011;6917;52.194;9.894;2023-11-21T15:30:15;1.57;;;1.47;;
13689;SDS011;6917;52.194;9.894;2023-11-21T15:32:40;0.53;;;0.53;;
13689;SDS011;6917;52.194;9.894;2023-11-21T15:35:06;1.65;;;1.55;;
13689;SDS011;6917;52.194;9.894;2023-11-21T15:37:37;2.20;;;2.00;;
13689;SDS011;6917;52.194;9.894;2023-11-21T15:40:03;2.75;;;2.50;;
13689;SDS011;6917;52.194;9.894;2023-11-21T15:42:30;0.60;;;0.60;;
13689;SDS011;6917;52.194;9.894;2023-11-21T15:44:56;2.37;;;2.17;;
13689;SDS011;6917;52.194;9.894;2023-11-21T15:47:21;1.80;;;1.70;;
13689;SDS011;6917;52.194;9.894;2023-11-21T15:49:47;0.50;;;0.50;;
13689;SDS011;6917;52.194;9.894;2023-11-21T15:52:12;1.60;;;1.30;;
13689;SDS011;6917;52.194;9.894;2023-11-21T15:54:40;0.53;;;0.53;;
13689;SDS011;6917;52.194;9.894;2023-11-21T15:57:12;0.10;;;0.10;;